Terminal Aerodrome Forecast
Issued by NWS Sterling, VA

Current Version | Previous Version | Graphics & Text | Print | Product List | Glossary On
Versions: 1 2 3 4 5 6 7 8 9 10 11 12 13 14 15 16 17 18 19 20 21
714
FTUS41 KLWX 062321
TAFMRB
TAF
KMRB 062321Z 0700/0724 01005KT 2SM -RA OVC008
     FM070400 VRB03KT 1 1/2SM BR OVC003
     FM071300 30005KT P6SM BKN008
     FM071500 31009KT P6SM BKN060
     FM071700 30008KT P6SM SKC
     FM072300 31004KT P6SM FEW140=

USA.gov is the U.S. government's official web portal to all federal, state and local government web resources and services.